Time;durP1;ratioP1;P1;durP2;ratioP2;P2;SDS_P1;SDS_P2;PMS_P1;PMS_P2;Temp;Humidity;BMP_temperature;BMP_pressure;BME280_temperature;BME280_humidity;BME280_pressure;Samples;Min_cycle;Max_cycle;Signal;HPM_P1;HPM_P2
2020/12/03 00:00:53;;;;;;;26.80;11.90;;;3.00;81.80;;;;;;5091062;28;20024;-72
2020/12/03 00:03:34;;;;;;;26.63;11.80;;;3.10;81.90;;;;;;5091409;28;20469;-74
2020/12/03 00:06:11;;;;;;;26.03;12.23;;;3.00;81.80;;;;;;5091524;28;20024;-72
2020/12/03 00:08:40;;;;;;;26.50;11.83;;;3.00;82.00;;;;;;5091181;28;20098;-72
2020/12/03 00:11:06;;;;;;;25.40;11.40;;;3.00;81.90;;;;;;5091457;28;20085;-72
2020/12/03 00:13:35;;;;;;;25.63;11.80;;;3.00;82.10;;;;;;5092195;28;20024;-72
2020/12/03 00:16:02;;;;;;;27.37;12.13;;;3.00;82.30;;;;;;5091454;28;20024;-71
2020/12/03 00:18:31;;;;;;;22.40;10.83;;;3.10;82.10;;;;;;5091141;28;20039;-73
2020/12/03 00:20:58;;;;;;;28.03;11.93;;;3.10;81.80;;;;;;5092436;28;20036;-73
2020/12/03 00:23:23;;;;;;;23.17;10.77;;;3.00;82.00;;;;;;5091454;28;20056;-76
2020/12/03 00:25:52;;;;;;;27.00;11.43;;;3.00;82.10;;;;;;5092369;28;20071;-72
2020/12/03 00:28:18;;;;;;;26.40;11.50;;;3.00;82.10;;;;;;5091683;28;20380;-72
2020/12/03 00:30:47;;;;;;;26.07;11.67;;;3.00;82.10;;;;;;5091170;28;20027;-72
2020/12/03 00:33:17;;;;;;;22.73;10.33;;;3.00;82.30;;;;;;5092974;28;20104;-72
2020/12/03 00:35:48;;;;;;;27.37;11.50;;;3.00;82.20;;;;;;5088265;28;20020;-73
2020/12/03 00:38:15;;;;;;;23.20;11.27;;;3.00;82.40;;;;;;5091827;28;20024;-72
2020/12/03 00:40:41;;;;;;;23.17;10.57;;;3.00;82.30;;;;;;5092177;28;20032;-72
2020/12/03 00:43:07;;;;;;;20.47;9.67;;;3.00;82.20;;;;;;5091012;28;20035;-72
2020/12/03 00:45:32;;;;;;;21.87;9.80;;;3.00;81.70;;;;;;5090897;28;20517;-72
2020/12/03 00:47:58;;;;;;;19.60;8.90;;;3.10;81.70;;;;;;5093348;28;20044;-72
2020/12/03 00:50:24;;;;;;;18.40;8.60;;;3.10;80.90;;;;;;5095700;28;20032;-74
2020/12/03 00:52:49;;;;;;;22.47;9.67;;;3.10;80.60;;;;;;5096587;28;20046;-72
2020/12/03 00:55:16;;;;;;;21.77;9.57;;;3.10;81.00;;;;;;5095644;28;20024;-72
2020/12/03 00:57:41;;;;;;;23.03;10.97;;;3.10;81.60;;;;;;5096585;28;20020;-73
2020/12/03 01:00:10;;;;;;;24.77;11.60;;;3.00;81.80;;;;;;5095298;28;20040;-72
2020/12/03 01:02:36;;;;;;;24.23;10.97;;;3.00;82.00;;;;;;5096318;28;20111;-72
2020/12/03 01:05:04;;;;;;;23.23;10.90;;;3.00;82.30;;;;;;5096698;28;20107;-72
2020/12/03 01:07:29;;;;;;;24.20;11.00;;;3.00;82.50;;;;;;5094563;28;20078;-73
2020/12/03 01:09:55;;;;;;;23.83;11.13;;;2.90;82.40;;;;;;5094394;28;20358;-72
2020/12/03 01:12:21;;;;;;;23.00;11.17;;;2.90;82.70;;;;;;5096452;28;20020;-71
2020/12/03 01:14:46;;;;;;;28.23;11.83;;;2.90;83.00;;;;;;5094249;28;20430;-73
2020/12/03 01:17:14;;;;;;;21.30;10.97;;;2.90;83.10;;;;;;5094901;28;20474;-72
2020/12/03 01:19:41;;;;;;;26.07;11.30;;;2.90;83.30;;;;;;5094144;28;20032;-72
2020/12/03 01:22:07;;;;;;;23.47;11.40;;;2.90;83.10;;;;;;5094869;28;20063;-73
2020/12/03 01:24:34;;;;;;;26.20;11.60;;;2.90;84.00;;;;;;5094359;28;20115;-73
2020/12/03 01:27:00;;;;;;;21.60;10.40;;;2.80;83.60;;;;;;5095342;28;20054;-73
2020/12/03 01:29:26;;;;;;;22.83;10.77;;;2.80;84.00;;;;;;5092403;28;20020;-73
2020/12/03 01:31:52;;;;;;;22.13;10.90;;;2.80;84.10;;;;;;5098215;28;20144;-73
2020/12/03 01:34:19;;;;;;;22.37;11.13;;;2.80;84.00;;;;;;5094897;28;20028;-73
2020/12/03 01:36:49;;;;;;;23.20;11.07;;;2.80;84.10;;;;;;5094359;28;20028;-72
2020/12/03 01:39:14;;;;;;;18.27;9.43;;;2.80;83.90;;;;;;5094986;28;20377;-73
2020/12/03 01:41:40;;;;;;;20.20;9.43;;;2.80;83.60;;;;;;5093929;28;20024;-73
2020/12/03 01:44:06;;;;;;;19.53;9.00;;;2.80;83.50;;;;;;5094704;28;20385;-73
2020/12/03 01:46:32;;;;;;;15.80;8.33;;;2.80;83.40;;;;;;5093622;28;20389;-73
2020/12/03 01:49:17;;;;;;;17.50;8.37;;;2.90;83.20;;;;;;5094137;28;20038;-73
2020/12/03 01:51:49;;;;;;;20.07;9.00;;;2.90;83.00;;;;;;5095392;28;20032;-73
2020/12/03 01:54:19;;;;;;;19.10;8.65;;;2.90;82.70;;;;;;5095909;28;20027;-73
2020/12/03 01:57:03;;;;;;;17.20;7.70;;;2.80;82.60;;;;;;5094064;28;20114;-73
2020/12/03 01:59:43;;;;;;;16.23;7.50;;;2.90;82.90;;;;;;5093124;28;20058;-74
2020/12/03 02:02:13;;;;;;;15.57;7.40;;;2.80;82.60;;;;;;5095799;28;20028;-73
2020/12/03 02:04:39;;;;;;;13.37;6.53;;;2.90;82.60;;;;;;5093735;28;20115;-73
2020/12/03 02:07:10;;;;;;;13.43;6.90;;;2.90;82.40;;;;;;5094244;28;20060;-73
2020/12/03 02:09:36;;;;;;;16.30;7.07;;;2.90;82.30;;;;;;5093725;28;20527;-74
2020/12/03 02:12:02;;;;;;;16.37;7.53;;;2.80;82.50;;;;;;5095312;28;20050;-73
2020/12/03 02:14:28;;;;;;;18.13;7.87;;;2.80;82.90;;;;;;5093448;28;20028;-74
2020/12/03 02:16:54;;;;;;;16.50;7.50;;;2.80;83.10;;;;;;5093926;28;20103;-73
2020/12/03 02:19:27;;;;;;;15.20;7.00;;;2.80;83.30;;;;;;5093898;28;20032;-73
2020/12/03 02:21:59;;;;;;;16.43;7.60;;;2.80;83.50;;;;;;5094747;28;20044;-73
2020/12/03 02:24:29;;;;;;;17.00;7.70;;;2.80;83.60;;;;;;5094314;28;20115;-73
2020/12/03 02:26:55;;;;;;;13.13;6.50;;;2.80;83.60;;;;;;5094797;28;20521;-73
2020/12/03 02:29:21;;;;;;;15.23;6.63;;;2.80;83.60;;;;;;5093819;28;20028;-73
2020/12/03 02:31:48;;;;;;;15.03;7.10;;;2.90;83.30;;;;;;5094535;28;20032;-73
2020/12/03 02:34:14;;;;;;;12.20;6.03;;;2.90;83.50;;;;;;5093539;28;20059;-73
2020/12/03 02:36:40;;;;;;;17.33;7.40;;;2.90;83.50;;;;;;5093801;28;20047;-73
2020/12/03 02:39:06;;;;;;;14.70;6.67;;;2.90;83.50;;;;;;5093550;28;20464;-73
2020/12/03 02:41:32;;;;;;;15.60;6.73;;;2.80;83.80;;;;;;5094461;28;20032;-73
2020/12/03 02:43:58;;;;;;;13.30;6.43;;;2.80;83.70;;;;;;5093564;28;20457;-73
2020/12/03 02:46:24;;;;;;;14.70;7.07;;;2.90;84.60;;;;;;5093529;28;20441;-73
2020/12/03 02:48:50;;;;;;;15.33;7.77;;;2.90;83.80;;;;;;5094657;28;20067;-73
2020/12/03 02:51:16;;;;;;;15.60;7.43;;;2.80;83.90;;;;;;5094444;28;20036;-73
2020/12/03 02:53:41;;;;;;;15.63;6.73;;;2.80;84.00;;;;;;5093810;28;20024;-73
2020/12/03 02:56:09;;;;;;;18.43;7.77;;;2.80;84.20;;;;;;5093465;28;20431;-73
2020/12/03 02:58:35;;;;;;;15.50;7.40;;;2.70;84.20;;;;;;5092837;28;20020;-74
2020/12/03 03:01:00;;;;;;;14.67;7.20;;;2.60;84.50;;;;;;5092499;28;20488;-73
2020/12/03 03:03:26;;;;;;;14.40;6.67;;;2.60;85.00;;;;;;5092552;28;20028;-73
2020/12/03 03:05:52;;;;;;;15.60;7.13;;;2.70;85.10;;;;;;5093625;28;20054;-73
2020/12/03 03:08:17;;;;;;;16.93;7.83;;;2.70;84.80;;;;;;5092478;28;20114;-73
2020/12/03 03:10:43;;;;;;;15.50;7.73;;;2.70;84.80;;;;;;5092023;28;20032;-73
2020/12/03 03:13:08;;;;;;;16.20;7.47;;;2.70;84.90;;;;;;5093166;28;20027;-73
2020/12/03 03:15:34;;;;;;;16.23;7.37;;;2.70;84.90;;;;;;5092627;28;20024;-75
2020/12/03 03:18:00;;;;;;;18.13;8.53;;;2.70;84.90;;;;;;5092857;28;20078;-73
2020/12/03 03:20:25;;;;;;;16.23;7.40;;;2.70;84.80;;;;;;5092109;28;20437;-73
2020/12/03 03:22:51;;;;;;;15.23;7.73;;;2.70;84.80;;;;;;5093320;28;20147;-73
2020/12/03 03:25:16;;;;;;;14.40;8.03;;;2.70;84.90;;;;;;5093436;28;20031;-73
2020/12/03 03:27:42;;;;;;;16.13;7.60;;;2.60;84.80;;;;;;5092703;28;20546;-74
2020/12/03 03:30:08;;;;;;;16.03;7.63;;;2.60;85.20;;;;;;5092766;28;20077;-73
2020/12/03 03:32:34;;;;;;;16.30;7.43;;;2.70;85.10;;;;;;5093515;28;20039;-74
2020/12/03 03:35:00;;;;;;;16.50;8.43;;;2.70;85.00;;;;;;5091751;28;20081;-72
2020/12/03 03:37:26;;;;;;;17.97;7.80;;;2.70;84.90;;;;;;5092342;28;20377;-73
2020/12/03 03:39:52;;;;;;;17.00;8.43;;;2.70;84.90;;;;;;5091951;28;20675;-73
2020/12/03 03:42:18;;;;;;;19.23;8.80;;;2.70;84.80;;;;;;5092436;28;20480;-72
2020/12/03 03:44:43;;;;;;;18.90;8.93;;;2.70;84.90;;;;;;5091293;28;20024;-73
2020/12/03 03:47:09;;;;;;;18.33;9.10;;;2.70;85.10;;;;;;5091376;28;20384;-73
2020/12/03 03:49:35;;;;;;;16.73;8.97;;;2.60;85.30;;;;;;5092818;28;20023;-78
2020/12/03 03:52:01;;;;;;;18.97;9.10;;;2.70;85.40;;;;;;5091744;28;20032;-74
2020/12/03 03:54:27;;;;;;;20.90;9.73;;;2.70;85.30;;;;;;5093084;28;20036;-73
2020/12/03 03:56:52;;;;;;;19.60;9.13;;;2.70;85.20;;;;;;5091481;28;20028;-73
2020/12/03 03:59:18;;;;;;;19.97;8.70;;;2.70;85.20;;;;;;5092884;28;20028;-73
2020/12/03 04:01:44;;;;;;;21.40;9.97;;;2.70;85.30;;;;;;5091578;28;20098;-73
2020/12/03 04:04:09;;;;;;;22.00;10.47;;;2.70;85.30;;;;;;5092130;28;20024;-73
2020/12/03 04:06:35;;;;;;;20.90;9.43;;;2.60;85.40;;;;;;5093009;28;20461;-76
2020/12/03 04:09:00;;;;;;;21.83;9.80;;;2.60;85.70;;;;;;5091690;28;20097;-73
2020/12/03 04:11:26;;;;;;;19.83;9.43;;;2.60;85.60;;;;;;5091340;28;20059;-73
2020/12/03 04:13:52;;;;;;;24.40;10.23;;;2.60;85.70;;;;;;5093081;28;20051;-73
2020/12/03 04:16:18;;;;;;;22.17;10.57;;;2.60;85.70;;;;;;5093493;28;20460;-73
2020/12/03 04:18:43;;;;;;;23.93;10.50;;;2.70;85.60;;;;;;5091119;28;20082;-73
2020/12/03 04:21:10;;;;;;;24.83;10.43;;;2.60;85.60;;;;;;5091604;28;20063;-73
2020/12/03 04:23:36;;;;;;;24.20;10.30;;;2.60;85.50;;;;;;5091060;28;20062;-76
2020/12/03 04:26:03;;;;;;;24.20;10.90;;;2.70;85.60;;;;;;5091517;28;20028;-73
2020/12/03 04:28:29;;;;;;;22.77;11.07;;;2.60;85.50;;;;;;5091765;28;20111;-73
2020/12/03 04:30:55;;;;;;;23.27;10.23;;;2.70;85.50;;;;;;5092419;28;20101;-73
2020/12/03 04:33:21;;;;;;;24.70;10.83;;;2.70;85.50;;;;;;5092560;28;20024;-73
2020/12/03 04:35:47;;;;;;;25.33;10.80;;;2.70;85.50;;;;;;5091085;28;20024;-73
2020/12/03 04:38:13;;;;;;;27.37;11.57;;;2.60;85.50;;;;;;5092765;28;20111;-73
2020/12/03 04:40:41;;;;;;;24.90;10.83;;;2.60;86.40;;;;;;5091280;28;20035;-73
2020/12/03 04:43:31;;;;;;;27.00;11.30;;;2.60;85.70;;;;;;5091756;28;20028;-73
2020/12/03 04:46:21;;;;;;;23.27;11.43;;;2.60;85.70;;;;;;5090758;28;20436;-73
2020/12/03 04:49:01;;;;;;;25.57;11.63;;;2.60;85.70;;;;;;5074284;28;20193;-73
2020/12/03 04:51:56;;;;;;;26.00;10.97;;;2.60;85.90;;;;;;5092940;28;20039;-73
2020/12/03 04:54:41;;;;;;;22.57;10.53;;;2.60;85.80;;;;;;5054461;28;20043;-73
2020/12/03 04:57:29;;;;;;;24.20;11.30;;;2.70;85.80;;;;;;5091507;28;20025;-73
2020/12/03 05:00:24;;;;;;;26.60;11.90;;;2.70;85.50;;;;;;5090946;28;20024;-73
2020/12/03 05:03:11;;;;;;;25.93;11.47;;;2.70;85.40;;;;;;5090911;28;20032;-73
2020/12/03 05:05:52;;;;;;;26.70;12.27;;;2.70;85.40;;;;;;5092700;28;20020;-74
2020/12/03 05:08:29;;;;;;;25.67;11.47;;;2.70;85.50;;;;;;5091644;28;20028;-73
2020/12/03 05:10:54;;;;;;;29.43;12.37;;;2.70;85.60;;;;;;5091068;28;20035;-73
2020/12/03 05:13:29;;;;;;;28.37;11.60;;;2.60;85.50;;;;;;5091346;28;20024;-73
2020/12/03 05:16:13;;;;;;;27.57;13.03;;;2.60;85.60;;;;;;5090837;28;20024;-73
2020/12/03 05:18:54;;;;;;;22.70;11.00;;;2.60;85.80;;;;;;5092674;28;20059;-73
2020/12/03 05:21:25;;;;;;;30.77;13.17;;;2.70;86.00;;;;;;5091112;28;20052;-73
2020/12/03 05:23:50;;;;;;;29.27;12.30;;;2.70;86.00;;;;;;5090880;28;20028;-73
2020/12/03 05:26:24;;;;;;;28.93;13.67;;;2.70;85.90;;;;;;5091247;28;20469;-73
2020/12/03 05:29:02;;;;;;;28.60;12.20;;;2.70;86.10;;;;;;5092398;28;20032;-73
2020/12/03 05:31:29;;;;;;;28.27;12.27;;;2.70;86.00;;;;;;5091182;28;20028;-73
2020/12/03 05:34:13;;;;;;;29.43;12.90;;;2.70;86.10;;;;;;5090805;28;20461;-73
2020/12/03 05:36:42;;;;;;;28.63;12.40;;;2.80;85.80;;;;;;5094955;28;20024;-75
2020/12/03 05:39:15;;;;;;;32.50;13.73;;;2.80;85.90;;;;;;5095602;28;20084;-73
2020/12/03 05:41:51;;;;;;;31.50;13.03;;;2.80;85.90;;;;;;5094568;28;20024;-76
2020/12/03 05:44:27;;;;;;;26.27;12.37;;;2.80;86.00;;;;;;5094799;28;20050;-73
2020/12/03 05:46:56;;;;;;;28.10;12.73;;;2.80;85.90;;;;;;5095611;28;20020;-73
2020/12/03 05:49:25;;;;;;;28.00;12.60;;;2.80;86.00;;;;;;5095717;28;20024;-73
2020/12/03 05:52:15;;;;;;;27.13;12.33;;;2.80;86.70;;;;;;5094015;28;20425;-73
2020/12/03 05:55:03;;;;;;;31.03;12.97;;;2.80;86.30;;;;;;5095627;28;20052;-78
2020/12/03 05:57:40;;;;;;;27.47;12.93;;;2.80;86.30;;;;;;5094305;28;20465;-73
2020/12/03 06:00:16;;;;;;;28.23;11.97;;;2.80;86.40;;;;;;5095094;28;20079;-73
2020/12/03 06:02:57;;;;;;;31.80;14.00;;;2.80;86.30;;;;;;5094000;28;20039;-78
2020/12/03 06:05:57;;;;;;;29.80;12.53;;;2.70;86.30;;;;;;5095679;28;20053;-73
2020/12/03 06:09:01;;;;;;;27.07;12.83;;;2.70;86.60;;;;;;5095705;28;20031;-74
2020/12/03 06:11:35;;;;;;;29.43;12.33;;;2.70;86.60;;;;;;5094344;28;20492;-73
2020/12/03 06:14:30;;;;;;;31.07;13.17;;;2.70;86.80;;;;;;5093809;28;20055;-73
2020/12/03 06:17:17;;;;;;;32.70;13.33;;;2.70;86.90;;;;;;5093662;28;20020;-73
2020/12/03 06:20:09;;;;;;;27.70;12.27;;;2.70;86.80;;;;;;5093704;28;20024;-75
2020/12/03 06:22:43;;;;;;;30.92;13.93;;;2.70;86.80;;;;;;5093939;28;20079;-73
2020/12/03 06:25:25;;;;;;;32.33;13.10;;;2.70;86.60;;;;;;5095065;28;20109;-73
2020/12/03 06:28:16;;;;;;;28.73;12.90;;;2.70;86.70;;;;;;5093368;28;20021;-73
2020/12/03 06:30:59;;;;;;;30.15;13.52;;;2.70;86.70;;;;;;5093860;28;20036;-75
2020/12/03 06:33:25;;;;;;;32.37;12.80;;;2.80;86.90;;;;;;5095145;28;20518;-73
2020/12/03 06:36:16;;;;;;;30.60;13.60;;;2.80;86.70;;;;;;5094289;28;20028;-73
2020/12/03 06:39:16;;;;;;;25.23;11.87;;;2.70;86.80;;;;;;5093649;28;20028;-73
2020/12/03 06:42:18;;;;;;;34.30;13.63;;;2.70;87.00;;;;;;5093787;28;20035;-73
2020/12/03 06:44:58;;;;;;;32.30;12.53;;;2.70;86.80;;;;;;5083288;28;20032;-77
2020/12/03 06:47:45;;;;;;;31.03;13.20;;;2.80;87.00;;;;;;5093977;28;20042;-73
2020/12/03 06:50:34;;;;;;;32.23;14.27;;;2.80;87.00;;;;;;5093303;28;20089;-73
2020/12/03 06:53:18;;;;;;;29.37;12.87;;;2.70;87.00;;;;;;5092768;28;20115;-73
2020/12/03 06:56:08;;;;;;;33.00;14.00;;;2.70;87.00;;;;;;5093143;28;20461;-74
2020/12/03 06:58:59;;;;;;;35.27;14.10;;;2.70;87.00;;;;;;5093271;28;20024;-72
2020/12/03 07:01:48;;;;;;;29.47;13.23;;;2.70;87.00;;;;;;5094437;28;20024;-73
2020/12/03 07:04:52;;;;;;;30.73;13.10;;;2.80;87.20;;;;;;5093369;28;20020;-73
2020/12/03 07:07:31;;;;;;;31.90;13.20;;;2.80;87.20;;;;;;5012334;28;20604;-73
2020/12/03 07:10:34;;;;;;;29.97;13.40;;;2.80;87.00;;;;;;5085828;28;20500;-73
2020/12/03 07:13:14;;;;;;;29.10;13.67;;;2.80;86.90;;;;;;5091880;28;20107;-73
2020/12/03 07:16:10;;;;;;;30.43;13.03;;;2.80;86.90;;;;;;5092807;28;20369;-73
2020/12/03 07:18:51;;;;;;;34.17;13.87;;;2.90;86.90;;;;;;5093011;28;20020;-73
2020/12/03 07:21:44;;;;;;;31.37;13.37;;;2.90;87.00;;;;;;5093826;28;20056;-73
2020/12/03 07:24:16;;;;;;;35.00;14.17;;;2.90;86.90;;;;;;5092203;28;20066;-73
2020/12/03 07:27:08;;;;;;;33.00;13.73;;;3.00;86.60;;;;;;5093605;28;20108;-73
2020/12/03 07:29:55;;;;;;;31.00;12.80;;;3.00;86.70;;;;;;5057311;28;20036;-73
2020/12/03 07:32:26;;;;;;;26.43;11.77;;;3.00;86.50;;;;;;5093589;28;20081;-73
2020/12/03 07:35:18;;;;;;;28.75;13.15;;;3.00;86.50;;;;;;5091599;28;20432;-74
2020/12/03 07:38:08;;;;;;;27.77;13.13;;;3.00;86.50;;;;;;5092208;28;20028;-73
2020/12/03 07:40:34;;;;;;;28.73;13.30;;;3.00;86.50;;;;;;5092388;28;20500;-73
2020/12/03 07:43:05;;;;;;;28.03;12.63;;;3.00;86.30;;;;;;5091583;28;20119;-73
2020/12/03 07:45:46;;;;;;;28.25;12.38;;;3.00;86.30;;;;;;5093649;28;20102;-73
2020/12/03 07:48:23;;;;;;;33.40;13.20;;;3.00;86.50;;;;;;5093147;28;20036;-73
2020/12/03 07:50:50;;;;;;;31.23;12.70;;;3.10;86.10;;;;;;5092113;28;20039;-77
2020/12/03 07:53:22;;;;;;;34.00;14.03;;;3.10;86.00;;;;;;5092104;28;20392;-73
2020/12/03 07:55:48;;;;;;;27.23;12.18;;;3.10;85.80;;;;;;5092157;28;20028;-76
2020/12/03 07:58:41;;;;;;;27.20;11.47;;;3.10;86.10;;;;;;5091871;28;20028;-73
2020/12/03 08:01:27;;;;;;;32.93;12.73;;;3.10;86.10;;;;;;5091600;28;20028;-73
2020/12/03 08:03:57;;;;;;;29.27;12.53;;;3.10;85.80;;;;;;5092347;28;20169;-74
2020/12/03 08:06:31;;;;;;;29.77;13.10;;;3.10;85.70;;;;;;5093068;28;20479;-73
2020/12/03 08:09:00;;;;;;;30.63;13.07;;;3.10;85.70;;;;;;5091075;28;20024;-73
2020/12/03 08:11:57;;;;;;;28.90;12.37;;;3.10;85.50;;;;;;5091752;28;20035;-73
2020/12/03 08:14:36;;;;;;;28.00;11.27;;;3.20;85.60;;;;;;5091914;28;20016;-73
2020/12/03 08:17:27;;;;;;;28.47;12.53;;;3.20;85.60;;;;;;5091085;28;20023;-73
2020/12/03 08:20:01;;;;;;;27.37;12.33;;;3.20;85.40;;;;;;5077763;28;20085;-77
2020/12/03 08:22:40;;;;;;;24.60;11.53;;;3.20;85.30;;;;;;5091122;28;20052;-73
2020/12/03 08:25:27;;;;;;;27.93;11.23;;;3.20;85.30;;;;;;5092081;28;20030;-73
2020/12/03 08:28:00;;;;;;;24.63;10.80;;;3.20;84.90;;;;;;5092324;28;20064;-76
2020/12/03 08:33:12;;;;;;;28.30;12.57;;;3.30;85.00;;;;;;5092067;28;20028;-73
2020/12/03 08:35:40;;;;;;;27.53;12.07;;;3.30;84.90;;;;;;5091063;28;20058;-73
2020/12/03 08:38:06;;;;;;;27.03;11.67;;;3.30;85.00;;;;;;5090631;28;20021;-73
2020/12/03 08:40:37;;;;;;;26.40;11.60;;;3.30;85.00;;;;;;5092632;28;20028;-73
2020/12/03 08:43:08;;;;;;;26.30;11.45;;;3.30;84.60;;;;;;5092064;28;20025;-73
2020/12/03 08:45:43;;;;;;;26.07;12.00;;;3.40;83.90;;;;;;5092813;28;20032;-72
2020/12/03 08:48:15;;;;;;;28.77;11.70;;;3.40;84.00;;;;;;5090817;28;20115;-72
2020/12/03 08:50:41;;;;;;;25.85;12.20;;;3.40;83.80;;;;;;5091531;28;20130;-73
2020/12/03 08:53:08;;;;;;;25.53;11.33;;;3.40;83.60;;;;;;5090799;28;20028;-72
2020/12/03 08:55:38;;;;;;;27.60;11.93;;;3.40;83.30;;;;;;5091535;28;20364;-73
2020/12/03 08:58:05;;;;;;;27.93;11.77;;;3.50;83.40;;;;;;5091002;28;20111;-73
2020/12/03 09:00:36;;;;;;;22.50;10.63;;;3.50;82.90;;;;;;5090840;28;20031;-73
2020/12/03 09:03:04;;;;;;;23.07;10.73;;;3.50;82.70;;;;;;5091043;28;20031;-73
2020/12/03 09:05:31;;;;;;;23.83;11.20;;;3.40;82.50;;;;;;5092621;28;20024;-72
2020/12/03 09:07:58;;;;;;;25.60;10.60;;;3.40;82.60;;;;;;5089803;28;20028;-74
2020/12/03 09:10:25;;;;;;;23.23;10.13;;;3.40;82.50;;;;;;5093636;28;20024;-73
2020/12/03 09:12:52;;;;;;;22.73;10.20;;;3.50;82.70;;;;;;5095446;28;20075;-73
2020/12/03 09:15:19;;;;;;;22.17;10.30;;;3.50;82.00;;;;;;5094102;28;20127;-73
2020/12/03 09:17:51;;;;;;;24.43;11.07;;;3.50;81.50;;;;;;5094440;28;20029;-74
2020/12/03 09:20:17;;;;;;;22.40;10.67;;;3.50;81.40;;;;;;5093817;28;20024;-73
2020/12/03 09:22:43;;;;;;;21.67;10.47;;;3.50;81.40;;;;;;5094091;28;20105;-74
2020/12/03 09:25:12;;;;;;;22.10;10.50;;;3.50;81.60;;;;;;5090340;28;20115;-74
2020/12/03 09:27:49;;;;;;;26.23;10.40;;;3.60;81.40;;;;;;5092049;28;20107;-72
2020/12/03 09:30:17;;;;;;;17.53;8.27;;;3.60;81.00;;;;;;5094088;28;20031;-74
2020/12/03 09:32:48;;;;;;;19.40;9.37;;;3.60;80.40;;;;;;5095006;28;20028;-75
2020/12/03 09:35:15;;;;;;;21.00;9.67;;;3.60;79.80;;;;;;5093461;28;20039;-76
2020/12/03 09:37:41;;;;;;;17.67;9.33;;;3.60;79.90;;;;;;5096312;28;20028;-75
2020/12/03 09:40:08;;;;;;;19.57;8.63;;;3.70;79.90;;;;;;5093623;28;20031;-75
2020/12/03 09:42:43;;;;;;;22.33;9.73;;;3.70;79.50;;;;;;5094551;28;20037;-74
2020/12/03 09:45:16;;;;;;;18.83;8.77;;;3.70;79.00;;;;;;5094286;28;20028;-72
2020/12/03 09:47:44;;;;;;;19.73;9.27;;;3.70;78.60;;;;;;5093540;28;20020;-73
2020/12/03 09:50:12;;;;;;;17.93;8.27;;;3.80;78.40;;;;;;5093782;28;20036;-73
2020/12/03 09:52:44;;;;;;;21.43;9.03;;;3.80;78.50;;;;;;5094330;28;20107;-73
2020/12/03 09:55:15;;;;;;;19.60;9.63;;;3.80;78.00;;;;;;5093816;28;20028;-73
2020/12/03 09:58:01;;;;;;;17.80;8.55;;;3.80;78.00;;;;;;5095846;28;20024;-73
2020/12/03 10:00:33;;;;;;;17.43;8.30;;;3.80;78.10;;;;;;5090647;28;20028;-73
2020/12/03 10:03:29;;;;;;;20.08;9.07;;;3.80;78.10;;;;;;5094925;28;20067;-74
2020/12/03 10:06:22;;;;;;;18.37;9.00;;;3.90;78.30;;;;;;5093984;28;20024;-73
2020/12/03 10:09:09;;;;;;;19.97;9.60;;;3.90;77.90;;;;;;5093792;28;20024;-73
2020/12/03 10:12:06;;;;;;;17.37;8.43;;;3.90;77.50;;;;;;5093643;28;20077;-73
2020/12/03 10:14:50;;;;;;;19.43;9.23;;;4.00;77.60;;;;;;5094957;28;20073;-73
2020/12/03 10:17:18;;;;;;;18.23;9.07;;;4.00;77.50;;;;;;5093216;28;20059;-73
2020/12/03 10:19:46;;;;;;;15.23;8.30;;;4.00;77.30;;;;;;5093617;28;20024;-73
2020/12/03 10:22:40;;;;;;;19.53;9.50;;;4.00;77.30;;;;;;5093355;28;20051;-73
2020/12/03 10:25:14;;;;;;;17.70;8.50;;;4.00;76.70;;;;;;5093506;28;20029;-72
2020/12/03 10:27:59;;;;;;;18.13;8.43;;;4.10;76.80;;;;;;5094898;28;20039;-72
2020/12/03 10:30:37;;;;;;;20.13;8.67;;;4.10;76.80;;;;;;5092756;28;20028;-71
2020/12/03 10:33:13;;;;;;;17.77;8.47;;;4.10;77.00;;;;;;5092556;28;20028;-71
2020/12/03 10:35:48;;;;;;;16.47;7.73;;;4.10;77.10;;;;;;5093471;28;20032;-71
2020/12/03 10:38:24;;;;;;;15.43;7.83;;;4.10;76.80;;;;;;5071975;28;20052;-76
2020/12/03 10:40:56;;;;;;;18.90;8.53;;;4.10;76.10;;;;;;5072854;28;20158;-73
2020/12/03 10:43:28;;;;;;;20.83;8.90;;;4.10;76.10;;;;;;5072883;28;20031;-72
2020/12/03 10:45:58;;;;;;;18.13;7.50;;;4.20;76.60;;;;;;5073355;28;20097;-71
2020/12/03 10:48:34;;;;;;;17.30;8.30;;;4.20;76.90;;;;;;5072573;28;20025;-73
2020/12/03 10:51:07;;;;;;;16.00;7.33;;;4.20;76.50;;;;;;5086004;28;20024;-72
2020/12/03 10:53:33;;;;;;;16.57;7.67;;;4.30;76.60;;;;;;5093212;28;20024;-71
2020/12/03 10:56:02;;;;;;;17.50;7.57;;;4.30;76.00;;;;;;5092316;28;20065;-72
2020/12/03 10:59:04;;;;;;;17.10;7.50;;;4.30;76.30;;;;;;5093060;28;20206;-72
2020/12/03 11:01:31;;;;;;;15.63;8.30;;;4.30;75.60;;;;;;5073441;28;20045;-72
2020/12/03 11:03:59;;;;;;;15.30;7.40;;;4.30;75.80;;;;;;5093037;28;20288;-72
2020/12/03 11:06:28;;;;;;;15.17;7.77;;;4.40;75.60;;;;;;5092406;28;20407;-72
2020/12/03 11:08:55;;;;;;;15.13;7.60;;;4.40;75.50;;;;;;5092673;28;20024;-72
2020/12/03 11:11:22;;;;;;;16.03;6.97;;;4.40;75.80;;;;;;5090820;28;20032;-75
2020/12/03 11:13:48;;;;;;;13.27;6.67;;;4.50;75.90;;;;;;5092065;28;20464;-71
2020/12/03 11:16:17;;;;;;;14.33;7.10;;;4.50;75.20;;;;;;5090361;28;20020;-72
2020/12/03 11:18:49;;;;;;;13.83;6.00;;;4.60;75.20;;;;;;5092885;28;20032;-71
2020/12/03 11:21:24;;;;;;;15.53;7.07;;;4.70;74.90;;;;;;5096345;28;20151;-72
2020/12/03 11:24:01;;;;;;;12.00;6.53;;;4.60;74.50;;;;;;5092617;28;20027;-73
2020/12/03 11:26:31;;;;;;;13.57;6.00;;;4.70;75.00;;;;;;5088765;28;20377;-73
2020/12/03 11:29:09;;;;;;;11.47;5.90;;;4.70;74.50;;;;;;5091498;28;20115;-74
2020/12/03 11:31:35;;;;;;;10.90;5.20;;;4.80;74.30;;;;;;5088230;28;20056;-73
2020/12/03 11:34:01;;;;;;;9.03;4.80;;;4.80;74.10;;;;;;5091188;28;20052;-77
2020/12/03 11:36:37;;;;;;;11.33;5.30;;;4.90;73.60;;;;;;5090831;28;20358;-72
2020/12/03 11:39:05;;;;;;;9.00;4.63;;;4.90;72.70;;;;;;5090688;28;20024;-74
2020/12/03 11:49:08;;;;;;;6.43;3.50;;;5.00;71.80;;;;;;5090600;28;20069;-74
2020/12/03 11:51:34;;;;;;;6.47;3.67;;;5.00;70.70;;;;;;5090510;28;20030;-74
2020/12/03 11:54:08;;;;;;;6.00;3.33;;;5.00;70.40;;;;;;5092087;28;20020;-77
2020/12/03 11:56:36;;;;;;;6.47;3.33;;;5.00;70.70;;;;;;5089094;28;20345;-73
2020/12/03 11:59:19;;;;;;;6.53;3.73;;;5.00;70.30;;;;;;5091559;28;20032;-77
2020/12/03 12:01:56;;;;;;;6.57;3.40;;;5.10;70.50;;;;;;5092194;28;20523;-72
2020/12/03 12:04:33;;;;;;;6.30;3.57;;;5.00;70.70;;;;;;5090703;28;20464;-74
2020/12/03 12:07:24;;;;;;;5.67;3.03;;;5.10;71.00;;;;;;5091090;28;20020;-73
2020/12/03 12:12:23;;;;;;;5.32;3.10;;;5.10;69.60;;;;;;5084629;28;20028;-73
2020/12/03 12:14:49;;;;;;;12.17;6.47;;;5.10;70.00;;;;;;5093308;28;20028;-72
2020/12/03 12:17:17;;;;;;;6.90;3.40;;;5.10;70.20;;;;;;5090405;28;20435;-72
2020/12/03 12:19:44;;;;;;;6.80;3.27;;;5.20;70.70;;;;;;5091362;28;20024;-80
2020/12/03 12:22:13;;;;;;;6.03;2.77;;;5.20;70.50;;;;;;5090164;28;20059;-72
2020/12/03 12:24:43;;;;;;;7.10;3.13;;;5.30;70.20;;;;;;5092278;28;20073;-71
2020/12/03 12:27:09;;;;;;;4.03;2.77;;;5.30;70.20;;;;;;5089875;28;20031;-72
2020/12/03 12:29:35;;;;;;;5.73;2.90;;;5.30;69.90;;;;;;5090922;28;20016;-71
2020/12/03 12:32:01;;;;;;;7.27;2.83;;;5.30;69.90;;;;;;5091030;28;20488;-75
2020/12/03 12:34:27;;;;;;;4.73;2.73;;;5.40;70.00;;;;;;5090293;28;20028;-72
2020/12/03 12:36:53;;;;;;;6.60;3.07;;;5.40;69.20;;;;;;5081075;28;20023;-73
2020/12/03 12:39:19;;;;;;;5.07;2.90;;;5.40;69.90;;;;;;5089380;28;20028;-72
2020/12/03 12:41:58;;;;;;;4.40;2.87;;;5.50;69.20;;;;;;5091798;28;20020;-72
2020/12/03 12:44:23;;;;;;;5.00;2.73;;;5.40;68.30;;;;;;5090931;28;20143;-71
2020/12/03 12:46:53;;;;;;;4.97;3.10;;;5.40;69.30;;;;;;5091181;28;20108;-73
2020/12/03 12:49:19;;;;;;;5.37;2.73;;;5.40;68.90;;;;;;5090169;28;20115;-72
2020/12/03 12:51:45;;;;;;;7.10;3.40;;;5.50;68.60;;;;;;5092015;28;20481;-72
2020/12/03 12:54:10;;;;;;;7.27;3.30;;;5.50;69.00;;;;;;5089162;28;20034;-72
2020/12/03 12:56:36;;;;;;;5.40;2.93;;;5.60;68.30;;;;;;5091495;28;20499;-72
2020/12/03 12:59:02;;;;;;;5.53;3.30;;;5.60;68.20;;;;;;5090279;28;20487;-75
2020/12/03 13:01:27;;;;;;;5.00;2.60;;;5.70;68.40;;;;;;5092135;28;20461;-73
2020/12/03 13:03:53;;;;;;;5.03;2.97;;;5.80;68.20;;;;;;5092264;28;20041;-74
2020/12/03 13:06:19;;;;;;;5.90;3.03;;;5.90;67.50;;;;;;5081097;28;20430;-73
2020/12/03 13:08:46;;;;;;;5.23;2.73;;;6.00;67.80;;;;;;5090032;28;20032;-73
2020/12/03 13:11:12;;;;;;;5.93;3.00;;;6.10;67.60;;;;;;5090733;28;20027;-73
2020/12/03 13:13:37;;;;;;;6.47;2.90;;;6.10;68.00;;;;;;5091645;28;20020;-74
2020/12/03 13:16:03;;;;;;;5.87;3.33;;;6.20;67.70;;;;;;5089379;28;20028;-73
2020/12/03 13:18:29;;;;;;;5.60;2.97;;;6.30;66.50;;;;;;5090218;28;20081;-72
2020/12/03 13:20:55;;;;;;;5.40;2.80;;;6.50;66.30;;;;;;5091601;28;20029;-72
2020/12/03 13:23:21;;;;;;;7.10;3.10;;;6.50;66.10;;;;;;5089840;28;20101;-74